KHYS/HYS METAR and TAF weather

Enter ICAO airport designator
Station Type Date Time Source
KHYS METAR 2020/02/25 11:29 UTC NOAA

KHYS 251129Z AUTO 32014KT 10SM OVC008 01/M01 A2989 RMK AO2 FZRANO


Station Type Date Time Source
KHYS Decoded METAR 2020/02/25 11:29 UTC NOAA

Hays, Hays Regional Airport, KS, United States (KHYS) 38-51N 099-16W
Feb 25, 2020 - 06:29 AM EST / 2020.02.25 1129 UTC
Wind: from the NW (320 degrees) at 16 MPH (14 KT):0
Visibility: 10 mile(s):0
Sky conditions: overcast
Temperature: 33 F (1 C)
Windchill: 23 F (-5 C):1
Dew Point: 30 F (-1 C)
Relative Humidity: 86%
Pressure (altimeter): 29.89 in. Hg (1012 hPa)
ob: KHYS 251129Z AUTO 32014KT 10SM OVC008 01/M01 A2989 RMK AO2 FZRANO
cycle: 11

Station Type Date Time Source
KHYS TAF 2020/02/25 12:42 UTC NOAA

TAF KHYS 251140Z 2512/2612 33016KT P6SM VCSH OVC008
FM251500 34016KT 1 1/2SM -SN OVC006
FM251800 36024G34KT 2SM -SN BLSN OVC022
FM252300 35025G35KT P6SM -SN OVC015
FM260800 34017KT P6SM BKN040

Example: see airport list